Terminal Aerodrome Forecast
Issued by NWS

Home | Current Version | Previous Version | Text Only | Print | Product List | Glossary On
Versions: 1 2 3 4 5 6 7 8 9 10 11 12
680
FTUS46 KMTR 250539
TAFSNS
TAF
KSNS 250539Z 2506/2606 25009KT P6SM OVC030
     FM251800 29011KT P6SM FEW020 BKN150
     FM260200 29010KT P6SM SCT012 BKN120=

USA.gov is the U.S. government's official web portal to all federal, state and local government web resources and services.